createdAt,value
2018-06-07T00:00:35.806Z,17.30
2018-06-07T00:03:04.219Z,17.40
2018-06-07T00:05:32.727Z,17.50
2018-06-07T00:08:01.094Z,17.50
2018-06-07T00:10:29.554Z,17.50
2018-06-07T00:12:58.103Z,17.40
2018-06-07T00:15:26.605Z,17.30
2018-06-07T00:17:54.997Z,17.30
2018-06-07T00:20:23.442Z,17.30
2018-06-07T00:22:51.959Z,17.30
2018-06-07T00:25:20.403Z,17.30
2018-06-07T00:27:48.868Z,17.30
2018-06-07T00:30:17.286Z,17.40
2018-06-07T00:32:45.761Z,17.30
2018-06-07T00:35:14.205Z,17.30
2018-06-07T00:37:42.653Z,17.30
2018-06-07T00:40:11.075Z,17.30
2018-06-07T00:42:39.617Z,17.30
2018-06-07T00:45:08.137Z,17.30
2018-06-07T00:47:36.574Z,17.30
2018-06-07T00:50:05.031Z,17.30
2018-06-07T00:52:33.514Z,17.30
2018-06-07T00:55:01.949Z,17.30
2018-06-07T00:57:30.442Z,17.20
2018-06-07T00:59:58.865Z,17.20
2018-06-07T01:02:27.397Z,17.20
2018-06-07T01:04:55.932Z,17.10
2018-06-07T01:07:24.393Z,17.10
2018-06-07T01:09:52.817Z,17.00
2018-06-07T01:12:21.197Z,17.00
2018-06-07T01:14:49.629Z,16.90
2018-06-07T01:17:18.064Z,16.90
2018-06-07T01:19:46.498Z,16.80
2018-06-07T01:22:14.964Z,16.70
2018-06-07T01:24:43.369Z,16.70
2018-06-07T01:27:11.825Z,16.70
2018-06-07T01:29:51.482Z,16.70
2018-06-07T01:33:39.060Z,16.60
2018-06-07T01:36:07.504Z,16.60
2018-06-07T01:38:47.111Z,16.60
2018-06-07T01:41:16.298Z,16.60
2018-06-07T01:43:44.761Z,16.60
2018-06-07T01:46:13.229Z,16.50
2018-06-07T01:48:41.707Z,16.60
2018-06-07T01:51:10.139Z,16.60
2018-06-07T01:53:38.545Z,16.60
2018-06-07T01:56:06.921Z,16.60
2018-06-07T01:58:35.435Z,16.50
2018-06-07T02:01:03.925Z,16.50
2018-06-07T02:03:32.325Z,16.50
2018-06-07T02:06:00.780Z,16.50
2018-06-07T02:08:29.186Z,16.50
2018-06-07T02:10:57.579Z,16.60
2018-06-07T02:13:25.973Z,16.70
2018-06-07T02:15:54.413Z,16.70
2018-06-07T02:18:22.895Z,16.70
2018-06-07T02:20:51.273Z,16.70
2018-06-07T02:23:19.754Z,16.60
2018-06-07T02:25:48.192Z,16.60
2018-06-07T02:28:16.756Z,16.70
2018-06-07T02:30:45.166Z,16.80
2018-06-07T02:33:13.573Z,16.80
2018-06-07T02:35:41.999Z,16.80
2018-06-07T02:38:10.420Z,16.90
2018-06-07T02:40:38.907Z,16.90
2018-06-07T02:43:07.293Z,16.90
2018-06-07T02:45:35.716Z,16.90
2018-06-07T02:48:04.094Z,17.00
2018-06-07T02:50:32.531Z,17.00
2018-06-07T02:53:00.961Z,17.10
2018-06-07T02:55:29.369Z,17.10
2018-06-07T02:57:57.823Z,17.10
2018-06-07T03:00:26.240Z,17.10
2018-06-07T03:02:54.610Z,17.10
2018-06-07T03:05:23.002Z,17.00
2018-06-07T03:07:51.421Z,16.90
2018-06-07T03:10:19.869Z,16.80
2018-06-07T03:12:48.308Z,16.80
2018-06-07T03:15:16.757Z,16.70
2018-06-07T03:17:45.303Z,16.80
2018-06-07T03:20:13.759Z,16.80
2018-06-07T03:22:42.166Z,16.80
2018-06-07T03:25:11.806Z,16.80
2018-06-07T03:27:40.313Z,16.80
2018-06-07T03:30:08.872Z,16.90
2018-06-07T03:32:37.300Z,17.00
2018-06-07T03:35:05.932Z,16.90
2018-06-07T03:37:34.355Z,16.90
2018-06-07T03:40:02.764Z,16.90
2018-06-07T03:42:31.146Z,16.90
2018-06-07T03:44:59.537Z,17.00
2018-06-07T03:47:28.048Z,17.00
2018-06-07T03:49:56.448Z,17.00
2018-06-07T03:52:24.979Z,17.00
2018-06-07T03:54:53.408Z,17.10
2018-06-07T03:57:22.216Z,17.30
2018-06-07T03:59:50.809Z,17.30
2018-06-07T04:02:19.313Z,17.30
2018-06-07T04:04:47.721Z,17.30
2018-06-07T04:07:16.129Z,17.30
2018-06-07T04:09:44.651Z,17.30
2018-06-07T04:12:13.070Z,17.40
2018-06-07T04:14:42.388Z,17.40
2018-06-07T04:17:10.953Z,17.30
2018-06-07T04:19:39.445Z,17.50
2018-06-07T04:22:07.866Z,17.40
2018-06-07T04:24:36.380Z,17.30
2018-06-07T04:27:04.874Z,17.40
2018-06-07T04:29:33.487Z,17.40
2018-06-07T04:32:02.037Z,17.40
2018-06-07T04:34:30.470Z,17.40
2018-06-07T04:36:58.961Z,17.50
2018-06-07T04:39:27.402Z,17.50
2018-06-07T04:41:55.844Z,17.60
2018-06-07T04:44:24.228Z,17.70
2018-06-07T04:49:20.774Z,17.80
2018-06-07T04:51:49.179Z,17.80
2018-06-07T04:54:17.599Z,17.80
2018-06-07T04:56:46.066Z,17.90
2018-06-07T04:59:14.485Z,18.00
2018-06-07T05:01:43.010Z,18.10
2018-06-07T05:04:11.458Z,18.20
2018-06-07T05:06:40.072Z,18.10
2018-06-07T05:09:08.778Z,18.10
2018-06-07T05:11:37.404Z,18.20
2018-06-07T05:14:05.839Z,18.30
2018-06-07T05:16:34.313Z,18.40
2018-06-07T05:19:02.777Z,18.50
2018-06-07T05:21:31.221Z,18.60
2018-06-07T05:23:59.608Z,18.70
2018-06-07T05:26:28.099Z,19.10
2018-06-07T05:28:56.569Z,19.20
2018-06-07T05:31:25.564Z,19.50
2018-06-07T05:33:54.030Z,20.00
2018-06-07T05:36:22.542Z,20.50
2018-06-07T05:38:50.956Z,20.70
2018-06-07T05:41:19.431Z,21.20
2018-06-07T05:43:47.869Z,20.70
2018-06-07T05:46:16.302Z,20.00
2018-06-07T05:48:44.772Z,19.90
2018-06-07T05:51:13.328Z,20.00
2018-06-07T05:53:41.845Z,19.80
2018-06-07T05:56:10.265Z,19.80
2018-06-07T05:58:38.774Z,19.90
2018-06-07T06:01:07.183Z,19.80
2018-06-07T06:03:35.731Z,20.00
2018-06-07T06:06:04.333Z,19.90
2018-06-07T06:08:32.825Z,19.90
2018-06-07T06:11:01.248Z,20.20
2018-06-07T06:13:29.669Z,20.30
2018-06-07T06:15:58.119Z,20.50
2018-06-07T06:18:26.515Z,21.00
2018-06-07T06:20:55.032Z,20.80
2018-06-07T06:23:23.566Z,20.60
2018-06-07T06:25:52.100Z,21.10
2018-06-07T06:28:20.614Z,21.30
2018-06-07T06:30:51.459Z,20.90
2018-06-07T06:33:20.068Z,21.40
2018-06-07T06:35:48.753Z,21.80
2018-06-07T06:38:32.696Z,22.50
2018-06-07T06:41:01.529Z,22.40
2018-06-07T06:43:30.578Z,22.10
2018-06-07T06:45:59.122Z,22.80
2018-06-07T06:48:27.661Z,22.90
2018-06-07T06:50:56.103Z,22.20
2018-06-07T06:53:24.605Z,22.00
2018-06-07T06:55:53.253Z,22.30
2018-06-07T06:58:21.759Z,22.10
2018-06-07T07:00:50.225Z,21.80
2018-06-07T07:03:18.793Z,22.00
2018-06-07T07:05:47.237Z,21.90
2018-06-07T07:08:15.716Z,22.10
2018-06-07T07:10:44.119Z,22.00
2018-06-07T07:13:18.877Z,21.90
2018-06-07T07:18:15.558Z,22.10
2018-06-07T07:20:44.032Z,21.70
2018-06-07T07:23:12.600Z,22.00
2018-06-07T07:25:41.081Z,22.00
2018-06-07T07:28:09.472Z,21.60
2018-06-07T07:30:37.893Z,21.80
2018-06-07T07:33:06.323Z,22.50
2018-06-07T07:35:34.756Z,23.10
2018-06-07T07:38:03.235Z,23.40
2018-06-07T07:40:31.754Z,23.40
2018-06-07T07:43:00.267Z,23.20
2018-06-07T07:45:28.741Z,22.60
2018-06-07T07:47:57.267Z,22.60
2018-06-07T07:50:25.780Z,22.70
2018-06-07T07:55:22.350Z,23.30
2018-06-07T07:57:50.747Z,23.30
2018-06-07T08:00:19.189Z,23.90
2018-06-07T08:02:47.700Z,23.50
2018-06-07T08:05:16.149Z,23.50
2018-06-07T08:07:44.587Z,23.70
2018-06-07T08:10:12.975Z,24.00
2018-06-07T08:12:41.379Z,25.20
2018-06-07T08:15:09.911Z,26.00
2018-06-07T08:17:38.438Z,25.70
2018-06-07T08:20:07.005Z,25.80
2018-06-07T08:22:35.503Z,25.10
2018-06-07T08:25:04.334Z,24.90
2018-06-07T08:27:32.769Z,24.40
2018-06-07T08:30:01.426Z,24.80
2018-06-07T08:32:29.829Z,25.20
2018-06-07T08:34:58.307Z,26.10
2018-06-07T08:37:27.009Z,26.70
2018-06-07T08:39:55.458Z,26.30
2018-06-07T08:42:24.917Z,26.10
2018-06-07T08:44:53.389Z,25.90
2018-06-07T08:47:21.941Z,25.50
2018-06-07T08:49:50.388Z,25.20
2018-06-07T08:52:18.986Z,24.80
2018-06-07T08:54:52.850Z,25.00
2018-06-07T08:57:21.535Z,25.70
2018-06-07T08:59:49.982Z,26.70
2018-06-07T09:02:19.013Z,26.80
2018-06-07T09:04:47.430Z,26.70
2018-06-07T09:07:15.931Z,26.90
2018-06-07T09:09:45.231Z,26.40
2018-06-07T09:12:13.863Z,26.10
2018-06-07T09:14:42.366Z,25.60
2018-06-07T09:17:11.132Z,25.30
2018-06-07T09:19:41.007Z,25.90
2018-06-07T09:22:09.406Z,26.00
2018-06-07T09:24:37.805Z,26.10
2018-06-07T09:27:06.510Z,26.00
2018-06-07T09:29:34.999Z,25.30
2018-06-07T09:32:03.542Z,25.80
2018-06-07T09:34:32.086Z,27.00
2018-06-07T09:37:01.938Z,26.40
2018-06-07T09:39:30.423Z,25.70
2018-06-07T09:41:58.966Z,26.30
2018-06-07T09:44:27.711Z,27.20
2018-06-07T09:46:56.171Z,27.30
2018-06-07T09:49:25.059Z,26.60
2018-06-07T09:51:53.472Z,26.30
2018-06-07T09:54:21.984Z,26.80
2018-06-07T09:56:50.505Z,27.00
2018-06-07T09:59:20.661Z,27.60
2018-06-07T10:01:50.909Z,27.40
2018-06-07T10:04:20.455Z,26.20
2018-06-07T10:06:48.891Z,26.70
2018-06-07T10:09:18.322Z,27.30
2018-06-07T10:14:14.924Z,27.50
2018-06-07T10:16:44.134Z,27.90
2018-06-07T10:19:12.605Z,27.70
2018-06-07T10:21:41.051Z,27.30
2018-06-07T10:24:09.531Z,27.20
2018-06-07T10:26:38.072Z,27.70
2018-06-07T10:29:06.534Z,27.20
2018-06-07T10:31:35.003Z,27.90
2018-06-07T10:34:03.513Z,27.80
2018-06-07T10:36:32.006Z,27.70
2018-06-07T10:39:00.590Z,27.70
2018-06-07T10:41:29.112Z,28.40
2018-06-07T10:43:57.689Z,28.70
2018-06-07T10:46:26.214Z,29.00
2018-06-07T10:48:54.643Z,28.50
2018-06-07T10:51:23.085Z,27.90
2018-06-07T10:53:51.464Z,29.50
2018-06-07T10:56:19.985Z,29.60
2018-06-07T10:58:48.576Z,29.60
2018-06-07T11:01:17.085Z,28.90
2018-06-07T11:03:48.137Z,28.70
2018-06-07T11:06:16.574Z,29.90
2018-06-07T11:08:45.038Z,29.00
2018-06-07T11:11:15.537Z,30.90
2018-06-07T11:13:43.961Z,31.60
2018-06-07T11:16:12.428Z,31.10
2018-06-07T11:18:41.444Z,31.20
2018-06-07T11:21:10.102Z,29.40
2018-06-07T11:23:38.581Z,28.70
2018-06-07T11:26:07.157Z,28.80
2018-06-07T11:31:03.960Z,31.00
2018-06-07T11:33:32.437Z,30.00
2018-06-07T11:36:00.923Z,30.40
2018-06-07T11:38:29.295Z,30.10
2018-06-07T11:40:57.795Z,29.60
2018-06-07T11:43:26.237Z,29.60
2018-06-07T11:45:54.885Z,31.50
2018-06-07T11:48:23.430Z,32.30
2018-06-07T11:50:52.401Z,31.00
2018-06-07T11:53:20.874Z,29.80
2018-06-07T11:55:49.334Z,31.50
2018-06-07T11:58:18.028Z,32.40
2018-06-07T12:00:46.566Z,33.50
2018-06-07T12:03:15.137Z,32.70
2018-06-07T12:05:43.661Z,30.40
2018-06-07T12:08:12.233Z,29.60
2018-06-07T12:10:40.907Z,31.10
2018-06-07T12:13:09.441Z,32.50
2018-06-07T12:15:37.911Z,32.10
2018-06-07T12:18:06.300Z,31.80
2018-06-07T12:20:34.801Z,32.30
2018-06-07T12:23:03.287Z,33.30
2018-06-07T12:25:31.805Z,30.50
2018-06-07T12:28:00.297Z,29.90
2018-06-07T12:30:28.766Z,31.20
2018-06-07T12:32:57.196Z,31.60
2018-06-07T12:35:25.663Z,31.40
2018-06-07T12:37:54.226Z,30.90
2018-06-07T12:40:22.901Z,29.90
2018-06-07T12:42:51.340Z,29.10
2018-06-07T12:45:20.002Z,28.20
2018-06-07T12:47:48.549Z,28.70
2018-06-07T12:52:45.545Z,30.60
2018-06-07T12:55:14.005Z,29.00
2018-06-07T12:57:42.444Z,28.30
2018-06-07T13:00:10.998Z,28.00
2018-06-07T13:02:39.611Z,29.40
2018-06-07T13:05:08.025Z,29.80
2018-06-07T13:07:36.487Z,29.80
2018-06-07T13:10:05.124Z,30.80
2018-06-07T13:12:33.589Z,31.60
2018-06-07T13:15:02.042Z,31.50
2018-06-07T13:17:30.479Z,31.80
2018-06-07T13:19:58.936Z,30.60
2018-06-07T13:22:27.527Z,29.90
2018-06-07T13:24:55.933Z,29.50
2018-06-07T13:27:24.387Z,31.40
2018-06-07T13:29:52.797Z,30.20
2018-06-07T13:32:21.232Z,30.50
2018-06-07T13:34:49.645Z,31.40
2018-06-07T13:37:18.214Z,33.40
2018-06-07T13:39:46.722Z,33.20
2018-06-07T13:42:15.175Z,32.70
2018-06-07T13:44:43.803Z,30.20
2018-06-07T13:47:12.284Z,30.00
2018-06-07T13:49:40.790Z,29.60
2018-06-07T13:52:09.323Z,29.00
2018-06-07T13:54:37.868Z,27.60
2018-06-07T13:57:12.837Z,27.40
2018-06-07T13:59:41.508Z,27.50
2018-06-07T14:02:10.123Z,27.70
2018-06-07T14:04:38.548Z,28.10
2018-06-07T14:07:06.989Z,28.00
2018-06-07T14:09:35.474Z,28.00
2018-06-07T14:12:04.048Z,28.20
2018-06-07T14:14:32.596Z,28.20
2018-06-07T14:17:01.113Z,28.50
2018-06-07T14:19:29.597Z,28.50
2018-06-07T14:21:58.075Z,28.30
2018-06-07T14:24:26.501Z,28.40
2018-06-07T14:26:54.901Z,28.20
2018-06-07T14:29:23.360Z,28.10
2018-06-07T14:31:51.868Z,28.40
2018-06-07T14:34:20.392Z,28.20
2018-06-07T14:36:48.802Z,28.30
2018-06-07T14:39:17.242Z,28.10
2018-06-07T14:41:45.906Z,27.40
2018-06-07T14:44:14.457Z,27.50
2018-06-07T14:46:42.939Z,27.70
2018-06-07T14:49:11.495Z,27.60
2018-06-07T14:51:40.155Z,26.60
2018-06-07T14:54:08.699Z,26.50
2018-06-07T14:56:37.366Z,26.50
2018-06-07T14:59:05.975Z,26.50
2018-06-07T15:01:34.433Z,26.70
2018-06-07T15:04:02.858Z,26.90
2018-06-07T15:06:31.311Z,27.10
2018-06-07T15:09:00.052Z,26.70
2018-06-07T15:11:28.500Z,26.60
2018-06-07T15:13:56.928Z,26.50
2018-06-07T15:16:25.365Z,26.30
2018-06-07T15:18:53.870Z,26.30
2018-06-07T15:21:22.286Z,26.40
2018-06-07T15:23:50.755Z,26.30
2018-06-07T15:26:19.215Z,26.40
2018-06-07T15:28:47.677Z,26.50
2018-06-07T15:31:16.211Z,26.60
2018-06-07T15:33:44.912Z,26.50
2018-06-07T15:36:13.875Z,26.30
2018-06-07T15:38:42.706Z,26.20
2018-06-07T15:41:11.311Z,26.10
2018-06-07T15:43:39.749Z,26.20
2018-06-07T15:46:08.321Z,26.20
2018-06-07T15:48:36.860Z,26.20
2018-06-07T15:51:05.359Z,26.00
2018-06-07T15:53:33.847Z,26.00
2018-06-07T15:56:02.442Z,26.10
2018-06-07T15:58:30.916Z,26.00
2018-06-07T16:00:59.426Z,26.10
2018-06-07T16:03:27.914Z,26.00
2018-06-07T16:05:56.453Z,25.90
2018-06-07T16:08:25.024Z,25.90
2018-06-07T16:10:53.746Z,26.00
2018-06-07T16:13:22.402Z,25.90
2018-06-07T16:15:51.008Z,25.90
2018-06-07T16:18:19.487Z,25.90
2018-06-07T16:20:48.004Z,25.90
2018-06-07T16:23:16.552Z,25.90
2018-06-07T16:25:45.013Z,26.00
2018-06-07T16:28:13.584Z,25.90
2018-06-07T16:30:42.064Z,25.80
2018-06-07T16:33:10.559Z,25.80
2018-06-07T16:35:39.087Z,25.90
2018-06-07T16:38:07.619Z,25.80
2018-06-07T16:40:37.018Z,25.80
2018-06-07T16:43:05.549Z,25.80
2018-06-07T16:45:34.112Z,25.80
2018-06-07T16:48:02.686Z,25.90
2018-06-07T16:50:31.217Z,25.70
2018-06-07T16:52:59.757Z,25.70
2018-06-07T16:55:28.301Z,25.60
2018-06-07T16:57:56.933Z,25.40
2018-06-07T17:00:25.506Z,25.40
2018-06-07T17:02:54.092Z,25.30
2018-06-07T17:05:22.588Z,25.30
2018-06-07T17:07:51.194Z,25.30
2018-06-07T17:10:19.814Z,25.30
2018-06-07T17:12:48.465Z,25.20
2018-06-07T17:15:17.106Z,25.20
2018-06-07T17:17:45.620Z,25.20
2018-06-07T17:20:14.197Z,25.20
2018-06-07T17:22:42.773Z,25.10
2018-06-07T17:25:11.390Z,25.10
2018-06-07T17:27:39.964Z,25.10
2018-06-07T17:30:08.527Z,25.10
2018-06-07T17:32:37.171Z,25.00
2018-06-07T17:35:05.773Z,25.00
2018-06-07T17:37:34.400Z,24.90
2018-06-07T17:40:02.933Z,24.80
2018-06-07T17:42:31.449Z,24.70
2018-06-07T17:44:59.956Z,24.70
2018-06-07T17:47:28.669Z,24.70
2018-06-07T17:49:57.259Z,24.60
2018-06-07T17:52:25.884Z,24.60
2018-06-07T17:54:54.447Z,24.60
2018-06-07T17:57:22.950Z,24.60
2018-06-07T17:59:51.409Z,24.50
2018-06-07T18:02:20.002Z,24.60
2018-06-07T18:04:48.717Z,24.60
2018-06-07T18:07:17.433Z,24.40
2018-06-07T18:09:45.890Z,24.10
2018-06-07T18:12:14.579Z,23.90
2018-06-07T18:14:43.224Z,23.80
2018-06-07T18:17:11.769Z,23.80
2018-06-07T18:19:40.415Z,23.80
2018-06-07T18:24:37.206Z,23.60
2018-06-07T18:27:05.893Z,23.50
2018-06-07T18:29:34.383Z,23.50
2018-06-07T18:32:02.879Z,23.50
2018-06-07T18:34:31.432Z,23.40
2018-06-07T18:37:00.140Z,23.40
2018-06-07T18:39:28.767Z,23.30
2018-06-07T18:41:57.291Z,23.30
2018-06-07T18:44:25.835Z,23.20
2018-06-07T18:46:54.628Z,23.10
2018-06-07T18:49:23.353Z,23.10
2018-06-07T18:51:51.966Z,23.00
2018-06-07T18:54:20.533Z,22.90
2018-06-07T18:56:50.553Z,22.90
2018-06-07T18:59:19.256Z,22.90
2018-06-07T19:01:48.123Z,22.80
2018-06-07T19:04:17.680Z,22.60
2018-06-07T19:06:46.471Z,22.50
2018-06-07T19:09:20.564Z,22.40
2018-06-07T19:11:55.153Z,22.30
2018-06-07T19:14:29.241Z,22.30
2018-06-07T19:16:57.839Z,22.30
2018-06-07T19:19:31.870Z,22.30
2018-06-07T19:22:00.393Z,22.30
2018-06-07T19:24:33.217Z,22.20
2018-06-07T19:27:07.641Z,22.20
2018-06-07T19:29:36.690Z,22.10
2018-06-07T19:32:10.845Z,22.20
2018-06-07T19:34:45.189Z,22.10
2018-06-07T19:37:14.132Z,22.00
2018-06-07T19:39:47.919Z,22.00
2018-06-07T19:42:17.259Z,22.00
2018-06-07T19:44:46.148Z,21.90
2018-06-07T19:47:15.398Z,21.90
2018-06-07T19:49:44.147Z,21.70
2018-06-07T19:52:13.455Z,21.70
2018-06-07T19:54:42.238Z,21.60
2018-06-07T19:57:10.982Z,21.60
2018-06-07T19:59:39.866Z,21.60
2018-06-07T20:02:08.869Z,21.70
2018-06-07T20:04:37.482Z,21.80
2018-06-07T20:07:05.998Z,21.80
2018-06-07T20:09:34.638Z,21.80
2018-06-07T20:12:03.477Z,21.80
2018-06-07T20:14:32.270Z,21.70
2018-06-07T20:17:00.787Z,21.70
2018-06-07T20:19:29.695Z,21.70
2018-06-07T20:21:58.248Z,21.60
2018-06-07T20:24:26.825Z,21.60
2018-06-07T20:26:55.344Z,21.60
2018-06-07T20:29:23.989Z,21.50
2018-06-07T20:31:52.454Z,21.50
2018-06-07T20:34:27.367Z,21.50
2018-06-07T20:36:55.833Z,21.40
2018-06-07T20:39:24.360Z,21.40
2018-06-07T20:41:52.869Z,21.30
2018-06-07T20:44:21.394Z,21.30
2018-06-07T20:46:49.987Z,21.20
2018-06-07T20:49:18.528Z,21.10
2018-06-07T20:51:47.002Z,21.00
2018-06-07T20:54:15.708Z,21.00
2018-06-07T20:56:44.188Z,21.00
2018-06-07T20:59:12.651Z,21.00
2018-06-07T21:01:41.130Z,21.00
2018-06-07T21:04:09.678Z,21.00
2018-06-07T21:06:39.339Z,21.00
2018-06-07T21:09:09.220Z,21.00
2018-06-07T21:11:38.831Z,21.00
2018-06-07T21:14:07.779Z,21.10
2018-06-07T21:16:36.213Z,21.00
2018-06-07T21:19:04.892Z,21.00
2018-06-07T21:21:33.494Z,21.00
2018-06-07T21:24:01.994Z,21.00
2018-06-07T21:26:30.486Z,20.90
2018-06-07T21:28:58.951Z,20.90
2018-06-07T21:31:27.470Z,20.90
2018-06-07T21:33:56.078Z,20.90
2018-06-07T21:36:24.567Z,20.80
2018-06-07T21:38:53.069Z,20.80
2018-06-07T21:41:21.950Z,20.70
2018-06-07T21:43:50.411Z,20.70
2018-06-07T21:46:18.988Z,20.70
2018-06-07T21:48:47.585Z,20.70
2018-06-07T21:51:16.118Z,20.70
2018-06-07T21:53:44.655Z,20.70
2018-06-07T21:56:13.277Z,20.70
2018-06-07T21:58:41.725Z,20.70
2018-06-07T22:01:10.262Z,20.70
2018-06-07T22:03:38.777Z,20.80
2018-06-07T22:06:07.345Z,20.80
2018-06-07T22:08:35.931Z,20.80
2018-06-07T22:11:04.430Z,20.80
2018-06-07T22:13:32.912Z,20.80
2018-06-07T22:16:01.405Z,20.80
2018-06-07T22:18:29.887Z,20.70
2018-06-07T22:20:58.310Z,20.70
2018-06-07T22:23:26.887Z,20.70
2018-06-07T22:25:56.593Z,20.70
2018-06-07T22:28:25.130Z,20.70
2018-06-07T22:30:53.605Z,20.60
2018-06-07T22:33:22.041Z,20.60
2018-06-07T22:35:50.613Z,20.60
2018-06-07T22:38:19.212Z,20.50
2018-06-07T22:40:47.690Z,20.50
2018-06-07T22:43:16.922Z,20.50
2018-06-07T22:45:45.365Z,20.50
2018-06-07T22:48:13.805Z,20.50
2018-06-07T22:50:42.353Z,20.40
2018-06-07T22:53:10.785Z,20.40
2018-06-07T22:55:39.290Z,20.50
2018-06-07T22:58:07.796Z,20.50
2018-06-07T23:00:37.822Z,20.50
2018-06-07T23:03:06.326Z,20.40
2018-06-07T23:05:34.769Z,20.40
2018-06-07T23:08:03.325Z,20.40
2018-06-07T23:10:31.712Z,20.40
2018-06-07T23:15:28.616Z,20.40
2018-06-07T23:17:57.515Z,20.40
2018-06-07T23:20:25.995Z,20.30
2018-06-07T23:22:54.475Z,20.30
2018-06-07T23:25:22.973Z,20.30
2018-06-07T23:27:51.426Z,20.40
2018-06-07T23:30:19.853Z,20.40
2018-06-07T23:32:50.924Z,20.40
2018-06-07T23:35:19.324Z,20.40
2018-06-07T23:37:47.727Z,20.40
2018-06-07T23:40:16.555Z,20.40
2018-06-07T23:45:13.478Z,20.40
2018-06-07T23:47:41.882Z,20.40
2018-06-07T23:50:10.311Z,20.40
2018-06-07T23:52:38.969Z,20.40
2018-06-07T23:55:08.631Z,20.30
2018-06-07T23:57:37.487Z,20.30
